Time,TemperatureF,DewpointF,PressureIn,WindDirection,WindDirectionDegrees,WindSpeedMPH,WindSpeedGustMPH,Humidity,HourlyPrecipIn,Conditions,Clouds,dailyrainin,SoftwareType,DateUTC
2013-03-23 00:03:00,65.0,64.0,29.95,ENE,59,3.0,5.0,95,0.10,,,0.47,,2013-03-23 04:03:00,
2013-03-23 00:12:00,65.0,64.0,29.95,ENE,59,3.0,5.0,95,0.10,,,0.47,,2013-03-23 04:12:00,
2013-03-23 00:23:00,65.0,64.0,29.98,ESE,111,0.0,0.0,96,0.09,,,0.47,,2013-03-23 04:23:00,
2013-03-23 00:32:00,65.0,64.0,29.96,ENE,78,2.0,3.0,96,0.07,,,0.47,,2013-03-23 04:32:00,
2013-03-23 00:43:00,65.0,64.0,29.96,ENE,78,2.0,3.0,96,0.07,,,0.47,,2013-03-23 04:43:00,
2013-03-23 00:53:00,65.0,64.0,29.97,ESE,121,0.0,2.0,96,0.03,,,0.47,,2013-03-23 04:53:00,
2013-03-23 01:02:00,65.0,64.0,29.97,SSE,153,0.0,0.0,96,0.00,,,0.47,,2013-03-23 05:02:00,
2013-03-23 01:12:00,65.0,64.0,29.97,SSE,153,0.0,0.0,96,0.00,,,0.47,,2013-03-23 05:12:00,
2013-03-23 01:22:00,65.0,64.0,29.97,SSE,153,0.0,0.0,97,0.01,,,0.48,,2013-03-23 05:22:00,
2013-03-23 01:32:00,65.0,64.0,29.96,SE,146,0.0,0.0,97,0.01,,,0.48,,2013-03-23 05:32:00,
2013-03-23 01:42:00,65.0,64.0,29.96,SE,146,0.0,0.0,97,0.01,,,0.48,,2013-03-23 05:42:00,
2013-03-23 01:52:00,65.0,64.0,29.96,SE,137,0.0,0.0,97,0.01,,,0.48,,2013-03-23 05:52:00,
2013-03-23 02:02:00,65.0,64.0,29.96,SE,137,0.0,0.0,97,0.01,,,0.48,,2013-03-23 06:02:00,
2013-03-23 02:12:00,65.0,64.0,29.96,SE,137,0.0,0.0,97,0.01,,,0.48,,2013-03-23 06:12:00,
2013-03-23 02:22:00,66.0,65.0,29.97,SE,137,0.0,0.0,97,0.07,,,0.55,,2013-03-23 06:22:00,
2013-03-23 02:32:00,66.0,65.0,29.96,SE,137,0.0,0.0,97,0.14,,,0.62,,2013-03-23 06:32:00,
2013-03-23 02:42:00,66.0,65.0,29.96,SE,137,0.0,0.0,97,0.14,,,0.62,,2013-03-23 06:42:00,
2013-03-23 02:52:00,66.0,65.0,29.95,East,86,0.0,0.0,97,0.14,,,0.62,,2013-03-23 06:52:00,
2013-03-23 03:02:00,66.0,65.0,29.94,ESE,114,1.0,3.0,97,0.15,,,0.63,,2013-03-23 07:02:00,
2013-03-23 03:12:00,66.0,65.0,29.94,ESE,114,1.0,3.0,97,0.15,,,0.63,,2013-03-23 07:12:00,
2013-03-23 03:22:00,66.0,65.0,29.94,ESE,114,1.0,3.0,97,0.15,,,0.63,,2013-03-23 07:22:00,
2013-03-23 03:32:00,66.0,65.0,29.94,ESE,114,1.0,3.0,97,0.15,,,0.63,,2013-03-23 07:32:00,
2013-03-23 03:42:00,66.0,65.0,29.94,ESE,114,1.0,3.0,97,0.15,,,0.63,,2013-03-23 07:42:00,
2013-03-23 03:52:00,65.0,64.0,29.93,East,100,0.0,0.0,97,0.01,,,0.63,,2013-03-23 07:52:00,
2013-03-23 04:03:00,65.0,64.0,29.92,East,100,0.0,0.0,97,0.00,,,0.63,,2013-03-23 08:03:00,
2013-03-23 04:13:00,65.0,64.0,29.92,East,100,0.0,0.0,97,0.00,,,0.63,,2013-03-23 08:13:00,
2013-03-23 04:22:00,65.0,64.0,29.92,South,184,0.0,0.0,97,0.00,,,0.63,,2013-03-23 08:22:00,
2013-03-23 04:32:00,65.0,64.0,29.92,South,184,0.0,0.0,98,0.00,,,0.63,,2013-03-23 08:32:00,
2013-03-23 04:42:00,65.0,64.0,29.92,South,184,0.0,0.0,98,0.00,,,0.63,,2013-03-23 08:42:00,
2013-03-23 04:52:00,66.0,65.0,29.91,South,184,0.0,0.0,97,0.00,,,0.63,,2013-03-23 08:52:00,
2013-03-23 05:02:00,65.0,64.0,29.91,South,184,0.0,0.0,97,0.00,,,0.63,,2013-03-23 09:02:00,
2013-03-23 05:12:00,65.0,64.0,29.91,South,184,0.0,0.0,97,0.00,,,0.63,,2013-03-23 09:12:00,
2013-03-23 05:22:00,65.0,64.0,29.91,South,184,0.0,0.0,97,0.00,,,0.63,,2013-03-23 09:22:00,
2013-03-23 05:33:00,65.0,64.0,29.90,South,184,0.0,0.0,97,0.00,,,0.63,,2013-03-23 09:33:00,
2013-03-23 05:42:00,65.0,64.0,29.90,South,184,0.0,0.0,97,0.00,,,0.63,,2013-03-23 09:42:00,
2013-03-23 05:53:00,65.0,64.0,29.90,South,184,0.0,0.0,98,0.00,,,0.63,,2013-03-23 09:53:00,
2013-03-23 06:03:00,65.0,64.0,29.90,South,184,0.0,0.0,97,0.00,,,0.63,,2013-03-23 10:03:00,
2013-03-23 06:13:00,65.0,64.0,29.90,South,184,0.0,0.0,97,0.00,,,0.63,,2013-03-23 10:13:00,
2013-03-23 06:23:00,65.0,64.0,29.90,South,184,0.0,0.0,98,0.00,,,0.63,,2013-03-23 10:23:00,
2013-03-23 06:34:00,65.0,64.0,29.91,South,184,0.0,0.0,98,0.00,,,0.63,,2013-03-23 10:34:00,
2013-03-23 06:42:00,65.0,64.0,29.91,South,184,0.0,0.0,98,0.00,,,0.63,,2013-03-23 10:42:00,
2013-03-23 06:52:00,66.0,65.0,29.91,South,184,0.0,0.0,98,0.00,,,0.63,,2013-03-23 10:52:00,
2013-03-23 07:03:00,66.0,65.0,29.92,South,171,0.0,3.0,98,0.00,,,0.63,,2013-03-23 11:03:00,
2013-03-23 07:12:00,66.0,65.0,29.92,South,171,0.0,3.0,98,0.00,,,0.63,,2013-03-23 11:12:00,
2013-03-23 07:22:00,66.0,65.0,29.92,South,171,0.0,3.0,98,0.00,,,0.63,,2013-03-23 11:22:00,
2013-03-23 07:32:00,67.0,66.0,29.93,SW,214,0.0,0.0,98,0.00,,,0.63,,2013-03-23 11:32:00,
2013-03-23 07:42:00,67.0,66.0,29.93,SW,214,0.0,0.0,98,0.00,,,0.63,,2013-03-23 11:42:00,
2013-03-23 07:52:00,67.0,66.0,29.93,SW,214,0.0,0.0,98,0.00,,,0.63,,2013-03-23 11:52:00,
2013-03-23 08:02:00,67.0,66.0,29.93,SW,214,0.0,0.0,98,0.00,,,0.63,,2013-03-23 12:02:00,
2013-03-23 08:13:00,67.0,66.0,29.93,SW,214,0.0,0.0,98,0.00,,,0.63,,2013-03-23 12:13:00,
2013-03-23 08:22:00,68.0,67.0,29.93,SSW,205,1.0,3.0,98,0.00,,,0.63,,2013-03-23 12:22:00,
2013-03-23 08:33:00,68.0,67.0,29.93,South,180,1.0,3.0,98,0.00,,,0.63,,2013-03-23 12:33:00,
2013-03-23 08:42:00,68.0,67.0,29.93,South,180,1.0,3.0,98,0.00,,,0.63,,2013-03-23 12:42:00,
2013-03-23 08:53:00,68.0,67.0,29.94,SSW,213,0.0,1.0,98,0.00,,,0.63,,2013-03-23 12:53:00,
2013-03-23 09:03:00,69.0,68.0,29.94,SSW,213,0.0,0.0,98,0.00,,,0.63,,2013-03-23 13:03:00,
2013-03-23 09:12:00,69.0,68.0,29.94,SSW,213,0.0,0.0,98,0.00,,,0.63,,2013-03-23 13:12:00,
2013-03-23 09:23:00,69.0,68.0,29.93,SSW,192,0.0,2.0,98,0.00,,,0.63,,2013-03-23 13:23:00,
2013-03-23 09:33:00,70.0,70.0,29.94,SSE,151,0.0,2.0,99,0.00,,,0.63,,2013-03-23 13:33:00,
2013-03-23 09:42:00,70.0,70.0,29.94,SSE,151,0.0,2.0,99,0.00,,,0.63,,2013-03-23 13:42:00,
2013-03-23 09:52:00,70.0,70.0,29.94,SSE,151,0.0,2.0,99,0.00,,,0.63,,2013-03-23 13:52:00,
2013-03-23 10:03:00,70.0,69.0,29.93,SW,229,2.0,3.0,98,0.00,,,0.63,,2013-03-23 14:03:00,
2013-03-23 10:12:00,70.0,69.0,29.93,SW,229,2.0,3.0,98,0.00,,,0.63,,2013-03-23 14:12:00,
2013-03-23 10:23:00,71.0,70.0,29.93,SSW,208,3.0,6.0,98,0.00,,,0.63,,2013-03-23 14:23:00,
2013-03-23 10:32:00,72.0,71.0,29.92,SW,215,1.0,5.0,98,0.00,,,0.63,,2013-03-23 14:32:00,
2013-03-23 10:43:00,72.0,71.0,29.92,SW,215,1.0,5.0,98,0.00,,,0.63,,2013-03-23 14:43:00,
2013-03-23 10:52:00,74.0,72.0,29.91,SW,220,3.0,7.0,93,0.00,,,0.63,,2013-03-23 14:52:00,
2013-03-23 11:04:00,76.0,72.0,29.91,SSW,196,4.0,6.0,88,0.00,,,0.63,,2013-03-23 15:04:00,
2013-03-23 11:13:00,76.0,72.0,29.91,SSW,196,4.0,6.0,88,0.00,,,0.63,,2013-03-23 15:13:00,
2013-03-23 11:22:00,77.0,73.0,29.92,SSE,149,4.0,10.0,87,0.00,,,0.63,,2013-03-23 15:22:00,
2013-03-23 11:33:00,78.0,73.0,29.90,South,189,1.0,6.0,84,0.00,,,0.63,,2013-03-23 15:33:00,
2013-03-23 11:43:00,78.0,73.0,29.90,South,189,1.0,6.0,84,0.00,,,0.63,,2013-03-23 15:43:00,
2013-03-23 11:53:00,78.0,73.0,29.90,WSW,238,2.0,5.0,85,0.00,,,0.63,,2013-03-23 15:53:00,
2013-03-23 12:03:00,78.0,72.0,29.90,SSW,194,3.0,12.0,82,0.00,,,0.63,,2013-03-23 16:03:00,
2013-03-23 12:13:00,78.0,72.0,29.90,SSW,194,3.0,12.0,82,0.00,,,0.63,,2013-03-23 16:13:00,
2013-03-23 12:23:00,78.0,72.0,29.90,SSW,194,3.0,12.0,82,0.00,,,0.63,,2013-03-23 16:23:00,
2013-03-23 12:33:00,80.0,72.0,29.88,West,275,3.0,7.0,78,0.00,,,0.63,,2013-03-23 16:33:00,
2013-03-23 12:43:00,80.0,72.0,29.88,West,275,3.0,7.0,78,0.00,,,0.63,,2013-03-23 16:43:00,
2013-03-23 12:54:00,81.0,73.0,29.88,ESE,117,4.0,7.0,77,0.00,,,0.63,,2013-03-23 16:54:00,
2013-03-23 13:03:00,81.0,73.0,29.88,SSW,213,2.0,10.0,76,0.00,,,0.63,,2013-03-23 17:03:00,
2013-03-23 13:12:00,82.0,73.0,29.87,South,189,5.0,12.0,74,0.00,,,0.63,,2013-03-23 17:12:00,
2013-03-23 13:22:00,82.0,73.0,29.87,South,189,5.0,12.0,74,0.00,,,0.63,,2013-03-23 17:22:00,
2013-03-23 13:33:00,83.0,73.0,29.86,SW,219,6.0,14.0,71,0.00,,,0.63,,2013-03-23 17:33:00,
2013-03-23 13:42:00,83.0,73.0,29.86,SW,219,6.0,14.0,71,0.00,,,0.63,,2013-03-23 17:42:00,
2013-03-23 13:53:00,83.0,72.0,29.85,SW,215,4.0,12.0,70,0.00,,,0.63,,2013-03-23 17:53:00,
2013-03-23 14:03:00,84.0,73.0,29.85,SSE,160,7.0,17.0,70,0.00,,,0.63,,2013-03-23 18:03:00,
2013-03-23 14:12:00,84.0,73.0,29.85,SSE,160,7.0,17.0,70,0.00,,,0.63,,2013-03-23 18:12:00,
2013-03-23 14:22:00,84.0,71.0,29.84,SW,221,6.0,14.0,66,0.00,,,0.63,,2013-03-23 18:22:00,
2013-03-23 14:32:00,85.0,72.0,29.83,SW,235,3.0,12.0,65,0.00,,,0.63,,2013-03-23 18:32:00,
2013-03-23 14:43:00,85.0,72.0,29.83,SW,235,3.0,12.0,65,0.00,,,0.63,,2013-03-23 18:43:00,
2013-03-23 14:52:00,85.0,71.0,29.83,SSW,193,6.0,12.0,64,0.00,,,0.63,,2013-03-23 18:52:00,
2013-03-23 15:03:00,85.0,70.0,29.81,SW,219,7.0,16.0,62,0.00,,,0.63,,2013-03-23 19:03:00,
2013-03-23 15:13:00,85.0,70.0,29.81,SW,219,7.0,16.0,62,0.00,,,0.63,,2013-03-23 19:13:00,
2013-03-23 15:23:00,87.0,73.0,29.81,SW,220,5.0,16.0,63,0.00,,,0.63,,2013-03-23 19:23:00,
2013-03-23 15:32:00,87.0,72.0,29.80,WSW,252,6.0,14.0,62,0.00,,,0.63,,2013-03-23 19:32:00,
2013-03-23 15:42:00,87.0,72.0,29.80,WSW,252,6.0,14.0,62,0.00,,,0.63,,2013-03-23 19:42:00,
2013-03-23 15:53:00,87.0,72.0,29.80,WSW,252,6.0,14.0,62,0.00,,,0.63,,2013-03-23 19:53:00,
2013-03-23 16:03:00,86.0,71.0,29.79,SW,227,7.0,15.0,62,0.00,,,0.63,,2013-03-23 20:03:00,
2013-03-23 16:13:00,86.0,71.0,29.79,SW,227,7.0,15.0,62,0.00,,,0.63,,2013-03-23 20:13:00,
2013-03-23 16:23:00,85.0,71.0,29.78,SSW,212,5.0,13.0,64,0.00,,,0.63,,2013-03-23 20:23:00,
2013-03-23 16:32:00,86.0,73.0,29.77,WSW,253,3.0,10.0,65,0.00,,,0.63,,2013-03-23 20:32:00,
2013-03-23 16:42:00,86.0,73.0,29.77,WSW,253,3.0,10.0,65,0.00,,,0.63,,2013-03-23 20:42:00,
2013-03-23 16:52:00,87.0,72.0,29.76,SW,220,6.0,13.0,62,0.00,,,0.63,,2013-03-23 20:52:00,
2013-03-23 17:02:00,85.0,71.0,29.75,WSW,237,5.0,12.0,63,0.00,,,0.63,,2013-03-23 21:02:00,
2013-03-23 17:12:00,85.0,71.0,29.75,WSW,237,5.0,12.0,63,0.00,,,0.63,,2013-03-23 21:12:00,
2013-03-23 17:22:00,85.0,71.0,29.75,WSW,248,5.0,12.0,63,0.00,,,0.61,,2013-03-23 21:22:00,
2013-03-23 17:33:00,86.0,69.0,29.75,SSW,213,5.0,15.0,57,0.00,,,0.60,,2013-03-23 21:33:00,
2013-03-23 17:43:00,86.0,69.0,29.75,SSW,213,5.0,15.0,57,0.00,,,0.60,,2013-03-23 21:43:00,
2013-03-23 17:54:00,86.0,68.0,29.75,WSW,242,9.0,16.0,55,0.00,,,0.60,,2013-03-23 21:54:00,
2013-03-23 18:03:00,85.0,67.0,29.76,SW,235,5.0,12.0,55,0.00,,,0.60,,2013-03-23 22:03:00,
2013-03-23 18:13:00,85.0,67.0,29.76,SW,235,5.0,12.0,55,0.00,,,0.60,,2013-03-23 22:13:00,
2013-03-23 18:23:00,86.0,66.0,29.76,WSW,243,7.0,15.0,52,0.00,,,0.60,,2013-03-23 22:23:00,
2013-03-23 18:33:00,86.0,66.0,29.76,WSW,241,7.0,17.0,52,0.00,,,0.60,,2013-03-23 22:33:00,
2013-03-23 18:42:00,86.0,66.0,29.76,WSW,241,7.0,17.0,52,0.00,,,0.60,,2013-03-23 22:42:00,
2013-03-23 18:53:00,84.0,66.0,29.78,West,273,4.0,12.0,54,0.00,,,0.52,,2013-03-23 22:53:00,
2013-03-23 19:02:00,84.0,66.0,29.78,WSW,238,3.0,10.0,55,0.00,,,0.39,,2013-03-23 23:02:00,
2013-03-23 19:13:00,84.0,66.0,29.78,WSW,238,3.0,10.0,55,0.00,,,0.39,,2013-03-23 23:13:00,
2013-03-23 19:23:00,84.0,66.0,29.79,SW,227,4.0,9.0,55,0.00,,,0.29,,2013-03-23 23:23:00,
2013-03-23 19:33:00,83.0,66.0,29.80,WSW,249,3.0,7.0,57,0.00,,,0.27,,2013-03-23 23:33:00,
2013-03-23 19:43:00,83.0,66.0,29.80,WSW,249,3.0,7.0,57,0.00,,,0.27,,2013-03-23 23:43:00,
2013-03-23 19:52:00,81.0,66.0,29.80,WSW,255,2.0,3.0,61,0.00,,,0.26,,2013-03-23 23:52:00,
2013-03-23 20:02:00,80.0,67.0,29.80,SSW,211,1.0,3.0,64,0.00,,,0.26,,2013-03-24 00:02:00,
2013-03-23 20:13:00,80.0,67.0,29.80,SSW,211,1.0,3.0,64,0.00,,,0.26,,2013-03-24 00:13:00,
2013-03-23 20:22:00,79.0,66.0,29.80,SW,232,0.0,0.0,65,0.00,,,0.26,,2013-03-24 00:22:00,
2013-03-23 20:33:00,78.0,67.0,29.81,SW,234,0.0,0.0,69,0.00,,,0.26,,2013-03-24 00:33:00,
2013-03-23 20:42:00,78.0,67.0,29.81,SW,234,0.0,0.0,69,0.00,,,0.26,,2013-03-24 00:42:00,
2013-03-23 20:52:00,77.0,66.0,29.82,WSW,252,0.0,0.0,70,0.00,,,0.26,,2013-03-24 00:52:00,
2013-03-23 21:02:00,77.0,67.0,29.82,SW,226,0.0,0.0,72,0.00,,,0.26,,2013-03-24 01:02:00,
2013-03-23 21:12:00,77.0,67.0,29.82,SW,226,0.0,0.0,72,0.00,,,0.26,,2013-03-24 01:12:00,
2013-03-23 21:22:00,76.0,66.0,29.83,SW,231,1.0,3.0,72,0.00,,,0.26,,2013-03-24 01:22:00,
2013-03-23 21:33:00,76.0,66.0,29.84,WSW,240,0.0,2.0,72,0.00,,,0.26,,2013-03-24 01:33:00,
2013-03-23 21:42:00,76.0,66.0,29.84,WSW,240,0.0,2.0,72,0.00,,,0.26,,2013-03-24 01:42:00,
2013-03-23 21:53:00,75.0,65.0,29.85,SW,236,0.0,3.0,72,0.00,,,0.26,,2013-03-24 01:53:00,
2013-03-23 22:03:00,75.0,66.0,29.85,West,262,1.0,3.0,73,0.00,,,0.26,,2013-03-24 02:03:00,
2013-03-23 22:12:00,75.0,66.0,29.85,West,262,1.0,3.0,73,0.00,,,0.26,,2013-03-24 02:12:00,
2013-03-23 22:22:00,75.0,67.0,29.85,WSW,237,0.0,0.0,75,0.00,,,0.26,,2013-03-24 02:22:00,
2013-03-23 22:32:00,75.0,67.0,29.85,WSW,237,0.0,0.0,75,0.00,,,0.26,,2013-03-24 02:32:00,
2013-03-23 22:42:00,75.0,67.0,29.85,WSW,237,0.0,0.0,75,0.00,,,0.26,,2013-03-24 02:42:00,
2013-03-23 22:52:00,74.0,66.0,29.86,WSW,240,0.0,0.0,76,0.00,,,0.26,,2013-03-24 02:52:00,
2013-03-23 23:02:00,74.0,66.0,29.87,West,265,0.0,3.0,77,0.00,,,0.26,,2013-03-24 03:02:00,
2013-03-23 23:13:00,74.0,66.0,29.87,West,265,0.0,3.0,77,0.00,,,0.26,,2013-03-24 03:13:00,
2013-03-23 23:23:00,73.0,66.0,29.87,West,261,0.0,0.0,78,0.00,,,0.26,,2013-03-24 03:23:00,
2013-03-23 23:33:00,73.0,66.0,29.87,West,262,0.0,0.0,80,0.00,,,0.23,,2013-03-24 03:33:00,
2013-03-23 23:42:00,73.0,66.0,29.87,West,262,0.0,0.0,80,0.00,,,0.23,,2013-03-24 03:42:00,
2013-03-23 23:53:00,72.0,66.0,29.86,West,262,0.0,0.0,81,0.00,,,0.19,,2013-03-24 03:53:00,